createdAt,value
2016-12-17T00:00:04.284Z,21.97
2016-12-17T00:00:30.266Z,22.02
2016-12-17T00:00:56.252Z,21.96
2016-12-17T00:01:22.234Z,22
2016-12-17T00:01:48.215Z,21.96
2016-12-17T00:02:14.196Z,21.94
2016-12-17T00:02:40.192Z,21.93
2016-12-17T00:03:06.184Z,22
2016-12-17T00:03:32.182Z,21.97
2016-12-17T00:03:58.176Z,22.02
2016-12-17T00:04:24.156Z,21.94
2016-12-17T00:04:50.140Z,21.96
2016-12-17T00:05:16.132Z,21.96
2016-12-17T00:05:42.119Z,21.97
2016-12-17T00:06:08.104Z,21.94
2016-12-17T00:06:34.091Z,22.02
2016-12-17T00:07:00.073Z,21.92
2016-12-17T00:07:26.055Z,21.97
2016-12-17T00:07:52.040Z,21.99
2016-12-17T00:08:18.022Z,21.9
2016-12-17T00:08:44.009Z,21.97
2016-12-17T00:09:10.003Z,21.97
2016-12-17T00:09:35.993Z,21.97
2016-12-17T00:10:02.003Z,21.96
2016-12-17T00:10:27.991Z,21.97
2016-12-17T00:10:53.990Z,21.93
2016-12-17T00:11:19.973Z,21.92
2016-12-17T00:11:45.958Z,21.9
2016-12-17T00:12:11.943Z,21.99
2016-12-17T00:12:37.927Z,21.93
2016-12-17T00:13:03.913Z,21.96
2016-12-17T00:13:29.896Z,21.93
2016-12-17T00:13:55.884Z,21.97
2016-12-17T00:14:21.865Z,21.97
2016-12-17T00:14:47.851Z,21.96
2016-12-17T00:15:13.835Z,21.97
2016-12-17T00:15:39.818Z,21.99
2016-12-17T00:16:05.805Z,21.99
2016-12-17T00:16:31.797Z,21.97
2016-12-17T00:16:57.787Z,21.97
2016-12-17T00:17:23.765Z,21.96
2016-12-17T00:17:49.752Z,21.94
2016-12-17T00:18:15.756Z,21.94
2016-12-17T00:18:41.745Z,21.96
2016-12-17T00:19:07.727Z,21.99
2016-12-17T00:19:33.714Z,21.99
2016-12-17T00:19:59.717Z,21.93
2016-12-17T00:20:25.717Z,21.97
2016-12-17T00:20:51.713Z,21.97
2016-12-17T00:21:17.687Z,21.96
2016-12-17T00:21:43.671Z,21.93
2016-12-17T00:22:09.657Z,21.97
2016-12-17T00:22:35.639Z,21.99
2016-12-17T00:23:01.635Z,21.99
2016-12-17T00:23:27.624Z,21.99
2016-12-17T00:23:53.639Z,21.99
2016-12-17T00:24:19.630Z,21.9
2016-12-17T00:24:45.616Z,21.94
2016-12-17T00:25:11.647Z,21.94
2016-12-17T00:25:37.599Z,21.99
2016-12-17T00:26:03.585Z,21.93
2016-12-17T00:26:29.585Z,21.92
2016-12-17T00:26:55.570Z,21.9
2016-12-17T00:27:21.553Z,21.94
2016-12-17T00:27:47.537Z,21.94
2016-12-17T00:28:13.526Z,21.92
2016-12-17T00:28:39.507Z,21.86
2016-12-17T00:29:05.489Z,21.86
2016-12-17T00:29:31.476Z,21.9
2016-12-17T00:29:57.461Z,21.9
2016-12-17T00:30:23.451Z,21.9
2016-12-17T00:30:49.438Z,21.94
2016-12-17T00:31:15.432Z,21.86
2016-12-17T00:31:41.425Z,21.89
2016-12-17T00:32:07.410Z,21.92
2016-12-17T00:32:33.399Z,21.85
2016-12-17T00:32:59.380Z,21.93
2016-12-17T00:33:25.366Z,21.94
2016-12-17T00:33:51.352Z,21.86
2016-12-17T00:34:17.336Z,21.85
2016-12-17T00:34:43.318Z,21.9
2016-12-17T00:35:09.304Z,21.93
2016-12-17T00:35:35.289Z,21.9
2016-12-17T00:36:01.275Z,21.86
2016-12-17T00:36:27.256Z,21.94
2016-12-17T00:36:53.289Z,21.83
2016-12-17T00:37:19.235Z,21.99
2016-12-17T00:37:45.233Z,21.9
2016-12-17T00:38:11.214Z,21.93
2016-12-17T00:38:37.196Z,21.93
2016-12-17T00:39:03.182Z,21.92
2016-12-17T00:39:29.166Z,21.96
2016-12-17T00:39:55.152Z,21.94
2016-12-17T00:40:21.133Z,21.89
2016-12-17T00:40:47.115Z,21.93
2016-12-17T00:41:13.098Z,21.92
2016-12-17T00:41:39.084Z,21.85
2016-12-17T00:42:05.071Z,21.89
2016-12-17T00:42:31.055Z,21.85
2016-12-17T00:42:57.043Z,21.92
2016-12-17T00:43:23.028Z,21.93
2016-12-17T00:43:49.012Z,21.89
2016-12-17T00:44:14.999Z,21.89
2016-12-17T00:44:40.986Z,21.9
2016-12-17T00:45:06.968Z,21.92
2016-12-17T00:45:32.954Z,21.92
2016-12-17T00:45:58.937Z,21.93
2016-12-17T00:46:24.920Z,21.96
2016-12-17T00:46:50.907Z,21.92
2016-12-17T00:47:16.891Z,21.86
2016-12-17T00:47:42.875Z,21.85
2016-12-17T00:48:08.869Z,21.86
2016-12-17T00:48:34.855Z,21.89
2016-12-17T00:49:00.853Z,21.9
2016-12-17T00:49:26.838Z,21.89
2016-12-17T00:49:52.824Z,21.85
2016-12-17T00:50:18.809Z,21.94
2016-12-17T00:50:44.790Z,21.93
2016-12-17T00:51:10.772Z,21.92
2016-12-17T00:51:36.759Z,21.94
2016-12-17T00:52:02.743Z,21.85
2016-12-17T00:52:28.730Z,21.89
2016-12-17T00:52:54.729Z,21.85
2016-12-17T00:53:20.702Z,21.93
2016-12-17T00:53:46.694Z,21.92
2016-12-17T00:54:12.695Z,21.86
2016-12-17T00:54:38.674Z,21.89
2016-12-17T00:55:04.663Z,21.89
2016-12-17T00:55:30.665Z,21.89
2016-12-17T00:55:56.700Z,21.92
2016-12-17T00:56:22.688Z,21.94
2016-12-17T00:56:48.670Z,21.92
2016-12-17T00:57:14.668Z,21.92
2016-12-17T00:57:40.651Z,21.94
2016-12-17T00:58:06.634Z,21.85
2016-12-17T00:58:32.620Z,21.93
2016-12-17T00:58:58.604Z,21.89
2016-12-17T00:59:24.590Z,21.9
2016-12-17T00:59:50.574Z,21.92
2016-12-17T01:00:16.557Z,21.9
2016-12-17T01:00:42.546Z,21.92
2016-12-17T01:01:08.527Z,21.89
2016-12-17T01:01:34.510Z,21.89
2016-12-17T01:02:00.494Z,21.92
2016-12-17T01:02:26.482Z,21.89
2016-12-17T01:02:52.475Z,21.83
2016-12-17T01:03:18.457Z,21.89
2016-12-17T01:03:44.440Z,21.94
2016-12-17T01:04:10.426Z,21.89
2016-12-17T01:04:36.411Z,21.92
2016-12-17T01:05:02.394Z,21.92
2016-12-17T01:05:28.382Z,21.94
2016-12-17T01:05:54.360Z,21.94
2016-12-17T01:06:20.344Z,21.89
2016-12-17T01:06:46.329Z,21.89
2016-12-17T01:07:12.313Z,21.92
2016-12-17T01:07:38.309Z,21.86
2016-12-17T01:08:04.322Z,21.89
2016-12-17T01:08:30.307Z,21.92
2016-12-17T01:08:56.289Z,21.89
2016-12-17T01:09:22.285Z,21.92
2016-12-17T01:09:48.284Z,21.9
2016-12-17T01:10:14.269Z,21.9
2016-12-17T01:10:40.499Z,21.93
2016-12-17T01:11:06.500Z,21.92
2016-12-17T01:11:32.490Z,21.92
2016-12-17T01:11:58.478Z,21.86
2016-12-17T01:12:24.460Z,21.92
2016-12-17T01:12:50.448Z,21.85
2016-12-17T01:13:16.435Z,21.89
2016-12-17T01:13:42.418Z,21.92
2016-12-17T01:14:08.405Z,21.89
2016-12-17T01:14:34.429Z,21.92
2016-12-17T01:15:00.372Z,21.92
2016-12-17T01:15:26.359Z,21.92
2016-12-17T01:15:52.342Z,21.9
2016-12-17T01:16:18.328Z,21.94
2016-12-17T01:16:44.313Z,21.89
2016-12-17T01:17:10.304Z,21.86
2016-12-17T01:17:36.298Z,21.89
2016-12-17T01:18:02.281Z,21.86
2016-12-17T01:18:28.273Z,21.89
2016-12-17T01:18:54.256Z,21.83
2016-12-17T01:19:20.238Z,21.89
2016-12-17T01:19:46.222Z,21.89
2016-12-17T01:20:12.207Z,21.92
2016-12-17T01:20:38.190Z,21.85
2016-12-17T01:21:04.176Z,21.83
2016-12-17T01:21:30.159Z,21.83
2016-12-17T01:21:56.143Z,21.89
2016-12-17T01:22:22.128Z,21.89
2016-12-17T01:22:48.110Z,21.9
2016-12-17T01:23:14.106Z,21.83
2016-12-17T01:23:40.099Z,21.92
2016-12-17T01:24:06.077Z,21.9
2016-12-17T01:24:32.060Z,21.92
2016-12-17T01:24:58.042Z,21.92
2016-12-17T01:25:24.028Z,21.89
2016-12-17T01:25:50.011Z,21.89
2016-12-17T01:26:15.994Z,21.86
2016-12-17T01:26:41.977Z,21.89
2016-12-17T01:27:07.959Z,21.92
2016-12-17T01:27:33.947Z,21.86
2016-12-17T01:27:59.935Z,21.92
2016-12-17T01:28:25.917Z,21.93
2016-12-17T01:28:51.924Z,21.89
2016-12-17T01:29:17.911Z,21.9
2016-12-17T01:29:43.891Z,21.86
2016-12-17T01:30:09.890Z,21.93
2016-12-17T01:30:35.877Z,21.92
2016-12-17T01:31:01.880Z,21.92
2016-12-17T01:31:27.855Z,21.86
2016-12-17T01:31:53.846Z,21.89
2016-12-17T01:32:19.830Z,21.92
2016-12-17T01:32:45.812Z,21.82
2016-12-17T01:33:11.796Z,21.83
2016-12-17T01:33:37.782Z,21.89
2016-12-17T01:34:03.766Z,21.96
2016-12-17T01:34:29.752Z,21.89
2016-12-17T01:34:55.739Z,21.86
2016-12-17T01:35:21.725Z,21.9
2016-12-17T01:35:47.712Z,21.86
2016-12-17T01:36:13.694Z,21.9
2016-12-17T01:36:39.691Z,21.82
2016-12-17T01:37:05.665Z,21.86
2016-12-17T01:37:31.648Z,21.85
2016-12-17T01:37:57.629Z,21.86
2016-12-17T01:38:23.613Z,21.89
2016-12-17T01:38:49.599Z,21.86
2016-12-17T01:39:15.583Z,21.85
2016-12-17T01:39:41.568Z,21.9
2016-12-17T01:40:07.560Z,21.89
2016-12-17T01:40:33.549Z,21.86
2016-12-17T01:40:59.547Z,21.85
2016-12-17T01:41:25.536Z,21.85
2016-12-17T01:41:51.521Z,21.86
2016-12-17T01:42:17.540Z,21.96
2016-12-17T01:42:43.489Z,21.9
2016-12-17T01:43:09.471Z,21.85
2016-12-17T01:43:35.456Z,21.93
2016-12-17T01:44:01.440Z,21.83
2016-12-17T01:44:27.427Z,21.89
2016-12-17T01:44:53.429Z,21.9
2016-12-17T01:45:19.413Z,21.89
2016-12-17T01:45:45.397Z,21.85
2016-12-17T01:46:11.385Z,21.89
2016-12-17T01:46:37.368Z,21.86
2016-12-17T01:47:03.361Z,21.83
2016-12-17T01:47:29.348Z,21.89
2016-12-17T01:47:55.345Z,21.9
2016-12-17T01:48:21.327Z,21.82
2016-12-17T01:48:47.314Z,21.83
2016-12-17T01:49:13.298Z,21.82
2016-12-17T01:49:39.288Z,21.85
2016-12-17T01:50:05.269Z,21.85
2016-12-17T01:50:31.251Z,21.77
2016-12-17T01:50:57.238Z,21.89
2016-12-17T01:51:23.224Z,21.83
2016-12-17T01:51:49.208Z,21.8
2016-12-17T01:52:15.191Z,21.82
2016-12-17T01:52:41.172Z,21.86
2016-12-17T01:53:07.159Z,21.83
2016-12-17T01:53:33.155Z,21.85
2016-12-17T01:53:59.154Z,21.85
2016-12-17T01:54:25.137Z,21.85
2016-12-17T01:54:51.137Z,21.82
2016-12-17T01:55:17.128Z,21.86
2016-12-17T01:55:43.111Z,21.85
2016-12-17T01:56:09.093Z,21.86
2016-12-17T01:56:35.079Z,21.8
2016-12-17T01:57:01.064Z,21.85
2016-12-17T01:57:27.046Z,21.86
2016-12-17T01:57:53.029Z,21.86
2016-12-17T01:58:19.014Z,21.8
2016-12-17T01:58:44.997Z,21.83
2016-12-17T01:59:10.980Z,21.89
2016-12-17T01:59:36.971Z,21.82
2016-12-17T02:00:02.966Z,21.82
2016-12-17T02:00:28.948Z,21.85
2016-12-17T02:00:54.934Z,21.83
2016-12-17T02:01:20.915Z,21.86
2016-12-17T02:01:46.898Z,21.82
2016-12-17T02:02:12.883Z,21.86
2016-12-17T02:02:38.873Z,21.8
2016-12-17T02:03:04.857Z,21.86
2016-12-17T02:03:30.852Z,21.86
2016-12-17T02:03:56.827Z,21.86
2016-12-17T02:04:22.812Z,21.86
2016-12-17T02:04:48.801Z,21.82
2016-12-17T02:05:14.807Z,21.82
2016-12-17T02:05:40.788Z,21.82
2016-12-17T02:06:06.788Z,21.85
2016-12-17T02:06:32.777Z,21.82
2016-12-17T02:06:58.776Z,21.8
2016-12-17T02:07:24.759Z,21.89
2016-12-17T02:07:50.743Z,21.9
2016-12-17T02:08:16.729Z,21.89
2016-12-17T02:08:42.714Z,21.82
2016-12-17T02:09:08.699Z,21.9
2016-12-17T02:09:34.683Z,21.78
2016-12-17T02:10:00.666Z,21.86
2016-12-17T02:10:26.647Z,21.85
2016-12-17T02:10:52.630Z,21.82
2016-12-17T02:11:18.612Z,21.86
2016-12-17T02:11:44.601Z,21.86
2016-12-17T02:12:10.586Z,21.82
2016-12-17T02:12:36.584Z,21.82
2016-12-17T02:13:02.567Z,21.83
2016-12-17T02:13:28.557Z,21.89
2016-12-17T02:13:54.539Z,21.78
2016-12-17T02:14:20.525Z,21.86
2016-12-17T02:14:47.923Z,21.83
2016-12-17T02:15:17.536Z,21.89
2016-12-17T02:15:46.769Z,21.82
2016-12-17T02:16:16.096Z,21.89
2016-12-17T02:16:44.154Z,21.85
2016-12-17T02:17:10.867Z,21.78
2016-12-17T02:17:36.851Z,21.82
2016-12-17T02:18:02.834Z,21.86
2016-12-17T02:18:28.816Z,21.8
2016-12-17T02:18:54.807Z,21.78
2016-12-17T02:19:20.799Z,21.77
2016-12-17T02:19:46.795Z,21.86
2016-12-17T02:20:12.794Z,21.82
2016-12-17T02:20:38.781Z,21.85
2016-12-17T02:21:04.761Z,21.82
2016-12-17T02:21:30.746Z,21.82
2016-12-17T02:21:56.729Z,21.76
2016-12-17T02:22:22.710Z,21.78
2016-12-17T02:22:48.695Z,21.82
2016-12-17T02:23:14.677Z,21.78
2016-12-17T02:23:40.659Z,21.8
2016-12-17T02:24:06.642Z,21.82
2016-12-17T02:24:32.624Z,21.8
2016-12-17T02:24:58.609Z,21.82
2016-12-17T02:25:24.604Z,21.8
2016-12-17T02:25:50.591Z,21.8
2016-12-17T02:26:16.571Z,21.77
2016-12-17T02:26:42.556Z,21.82
2016-12-17T02:27:08.539Z,21.78
2016-12-17T02:27:34.524Z,21.78
2016-12-17T02:28:00.510Z,21.77
2016-12-17T02:28:26.489Z,21.71
2016-12-17T02:28:52.471Z,21.73
2016-12-17T02:29:18.458Z,21.83
2016-12-17T02:29:44.475Z,21.8
2016-12-17T02:30:10.460Z,21.78
2016-12-17T02:30:36.496Z,21.8
2016-12-17T02:31:02.477Z,21.83
2016-12-17T02:31:28.458Z,21.83
2016-12-17T02:31:54.443Z,21.76
2016-12-17T02:32:20.429Z,21.86
2016-12-17T02:32:46.419Z,21.7
2016-12-17T02:33:12.414Z,21.82
2016-12-17T02:33:38.402Z,21.82
2016-12-17T02:34:04.389Z,21.77
2016-12-17T02:34:30.373Z,21.82
2016-12-17T02:34:56.353Z,21.83
2016-12-17T02:35:22.341Z,21.82
2016-12-17T02:35:48.325Z,21.82
2016-12-17T02:36:14.308Z,21.77
2016-12-17T02:36:40.296Z,21.78
2016-12-17T02:37:06.277Z,21.8
2016-12-17T02:37:32.261Z,21.76
2016-12-17T02:37:58.246Z,21.77
2016-12-17T02:38:24.250Z,21.77
2016-12-17T02:38:50.238Z,21.85
2016-12-17T02:39:16.229Z,21.73
2016-12-17T02:39:42.242Z,21.8
2016-12-17T02:40:08.224Z,21.71
2016-12-17T02:40:34.239Z,21.76
2016-12-17T02:41:00.213Z,21.8
2016-12-17T02:41:26.199Z,21.8
2016-12-17T02:41:52.182Z,21.78
2016-12-17T02:42:18.172Z,21.82
2016-12-17T02:42:44.175Z,21.8
2016-12-17T02:43:10.189Z,21.77
2016-12-17T02:43:36.175Z,21.76
2016-12-17T02:44:02.157Z,21.78
2016-12-17T02:44:28.143Z,21.78
2016-12-17T02:44:54.123Z,21.83
2016-12-17T02:45:20.115Z,21.8
2016-12-17T02:45:46.103Z,21.83
2016-12-17T02:46:12.090Z,21.78
2016-12-17T02:46:38.071Z,21.78
2016-12-17T02:47:04.055Z,21.73
2016-12-17T02:47:30.044Z,21.78
2016-12-17T02:47:56.042Z,21.83
2016-12-17T02:48:22.039Z,21.82
2016-12-17T02:48:48.024Z,21.7
2016-12-17T02:49:14.009Z,21.9
2016-12-17T02:49:39.994Z,21.83
2016-12-17T02:50:05.980Z,21.8
2016-12-17T02:50:31.963Z,21.78
2016-12-17T02:50:57.947Z,21.83
2016-12-17T02:51:23.934Z,21.82
2016-12-17T02:51:49.918Z,21.82
2016-12-17T02:52:15.902Z,21.71
2016-12-17T02:52:41.888Z,21.8
2016-12-17T02:53:07.873Z,21.83
2016-12-17T02:53:33.868Z,21.77
2016-12-17T02:53:59.851Z,21.78
2016-12-17T02:54:25.834Z,21.85
2016-12-17T02:54:51.851Z,21.76
2016-12-17T02:55:17.835Z,21.8
2016-12-17T02:55:43.818Z,21.77
2016-12-17T02:56:09.825Z,21.9
2016-12-17T02:56:35.784Z,21.77
2016-12-17T02:57:01.769Z,21.76
2016-12-17T02:57:27.753Z,21.8
2016-12-17T02:57:53.736Z,21.8
2016-12-17T02:58:19.722Z,21.82
2016-12-17T02:58:45.709Z,21.74
2016-12-17T02:59:11.693Z,21.76
2016-12-17T02:59:37.677Z,21.8
2016-12-17T03:00:03.663Z,21.86
2016-12-17T03:00:29.659Z,21.74
2016-12-17T03:00:55.642Z,21.71
2016-12-17T03:01:21.630Z,21.74
2016-12-17T03:01:47.612Z,21.78
2016-12-17T03:02:13.597Z,21.71
2016-12-17T03:02:39.578Z,21.8
2016-12-17T03:03:05.560Z,21.77
2016-12-17T03:03:31.542Z,21.83
2016-12-17T03:03:57.529Z,21.73
2016-12-17T03:04:23.512Z,21.77
2016-12-17T03:04:49.494Z,21.71
2016-12-17T03:05:15.485Z,21.78
2016-12-17T03:05:41.472Z,21.73
2016-12-17T03:06:07.468Z,21.71
2016-12-17T03:06:33.469Z,21.77
2016-12-17T03:06:59.443Z,21.76
2016-12-17T03:07:25.430Z,21.76
2016-12-17T03:07:51.413Z,21.85
2016-12-17T03:08:17.396Z,21.73
2016-12-17T03:08:43.387Z,21.74
2016-12-17T03:09:09.373Z,21.76
2016-12-17T03:09:35.354Z,21.78
2016-12-17T03:10:01.339Z,21.82
2016-12-17T03:10:27.324Z,21.82
2016-12-17T03:10:53.310Z,21.73
2016-12-17T03:11:19.293Z,21.78
2016-12-17T03:11:45.288Z,21.73
2016-12-17T03:12:11.280Z,21.7
2016-12-17T03:12:37.262Z,21.71
2016-12-17T03:13:03.245Z,21.73
2016-12-17T03:13:29.259Z,21.73
2016-12-17T03:13:55.237Z,21.78
2016-12-17T03:14:21.243Z,21.89
2016-12-17T03:14:47.234Z,21.82
2016-12-17T03:15:13.233Z,21.73
2016-12-17T03:15:39.233Z,21.73
2016-12-17T03:16:05.221Z,21.8
2016-12-17T03:16:31.205Z,21.7
2016-12-17T03:16:57.193Z,21.85
2016-12-17T03:17:23.190Z,21.73
2016-12-17T03:17:49.171Z,21.78
2016-12-17T03:18:15.153Z,21.86
2016-12-17T03:18:41.142Z,21.73
2016-12-17T03:19:07.125Z,21.71
2016-12-17T03:19:33.107Z,21.82
2016-12-17T03:19:59.095Z,21.76
2016-12-17T03:20:25.090Z,21.78
2016-12-17T03:20:51.076Z,21.71
2016-12-17T03:21:17.059Z,21.83
2016-12-17T03:21:43.045Z,21.71
2016-12-17T03:22:09.025Z,21.8
2016-12-17T03:22:35.411Z,21.8
2016-12-17T03:23:01.392Z,21.77
2016-12-17T03:23:27.379Z,21.8
2016-12-17T03:23:53.365Z,21.74
2016-12-17T03:24:19.376Z,21.8
2016-12-17T03:24:45.400Z,21.7
2016-12-17T03:25:11.386Z,21.7
2016-12-17T03:25:37.369Z,21.74
2016-12-17T03:26:03.353Z,21.8
2016-12-17T03:26:29.342Z,21.71
2016-12-17T03:26:55.332Z,21.71
2016-12-17T03:27:21.316Z,21.68
2016-12-17T03:27:47.315Z,21.77
2016-12-17T03:28:13.309Z,21.71
2016-12-17T03:28:39.305Z,21.77
2016-12-17T03:29:05.303Z,21.76
2016-12-17T03:29:31.288Z,21.71
2016-12-17T03:29:57.272Z,21.74
2016-12-17T03:30:23.257Z,21.76
2016-12-17T03:30:49.239Z,21.73
2016-12-17T03:31:15.223Z,21.77
2016-12-17T03:31:41.210Z,21.74
2016-12-17T03:32:07.192Z,21.8
2016-12-17T03:32:33.172Z,21.73
2016-12-17T03:32:59.158Z,21.76
2016-12-17T03:33:25.141Z,21.68
2016-12-17T03:33:51.126Z,21.74
2016-12-17T03:34:17.113Z,21.77
2016-12-17T03:34:43.115Z,21.74
2016-12-17T03:35:09.113Z,21.77
2016-12-17T03:35:35.099Z,21.77
2016-12-17T03:36:01.081Z,21.78
2016-12-17T03:36:27.066Z,21.74
2016-12-17T03:36:53.050Z,21.77
2016-12-17T03:37:19.035Z,21.71
2016-12-17T03:37:45.025Z,21.74
2016-12-17T03:38:11.004Z,21.71
2016-12-17T03:38:36.989Z,21.78
2016-12-17T03:39:02.975Z,21.71
2016-12-17T03:39:28.962Z,21.74
2016-12-17T03:39:54.943Z,21.74
2016-12-17T03:40:20.934Z,21.77
2016-12-17T03:40:46.936Z,21.77
2016-12-17T03:41:12.907Z,21.68
2016-12-17T03:41:38.892Z,21.74
2016-12-17T03:42:04.874Z,21.77
2016-12-17T03:42:30.859Z,21.68
2016-12-17T03:42:56.844Z,21.74
2016-12-17T03:43:22.835Z,21.71
2016-12-17T03:43:48.822Z,21.77
2016-12-17T03:44:14.808Z,21.74
2016-12-17T03:44:40.789Z,21.74
2016-12-17T03:45:06.774Z,21.76
2016-12-17T03:45:32.760Z,21.74
2016-12-17T03:45:58.745Z,21.73
2016-12-17T03:46:24.736Z,21.74
2016-12-17T03:46:50.719Z,21.77
2016-12-17T03:47:16.703Z,21.74
2016-12-17T03:47:42.688Z,21.78
2016-12-17T03:48:08.685Z,21.77
2016-12-17T03:48:34.678Z,21.68
2016-12-17T03:49:00.684Z,21.77
2016-12-17T03:49:26.671Z,21.7
2016-12-17T03:49:52.660Z,21.71
2016-12-17T03:50:18.643Z,21.74
2016-12-17T03:50:44.635Z,21.74
2016-12-17T03:51:10.610Z,21.74
2016-12-17T03:51:36.601Z,21.77
2016-12-17T03:52:02.585Z,21.73
2016-12-17T03:52:28.572Z,21.8
2016-12-17T03:52:54.556Z,21.71
2016-12-17T03:53:20.545Z,21.74
2016-12-17T03:53:46.545Z,21.73
2016-12-17T03:54:12.530Z,21.73
2016-12-17T03:54:38.513Z,21.77
2016-12-17T03:55:04.498Z,21.76
2016-12-17T03:55:30.485Z,21.71
2016-12-17T03:55:56.471Z,21.78
2016-12-17T03:56:22.455Z,21.77
2016-12-17T03:56:48.452Z,21.74
2016-12-17T03:57:14.437Z,21.77
2016-12-17T03:57:40.419Z,21.74
2016-12-17T03:58:06.404Z,21.74
2016-12-17T03:58:32.388Z,21.73
2016-12-17T03:58:58.372Z,21.78
2016-12-17T03:59:24.359Z,21.74
2016-12-17T03:59:50.351Z,21.71
2016-12-17T04:00:16.328Z,21.74
2016-12-17T04:00:42.316Z,21.74
2016-12-17T04:01:08.301Z,21.71
2016-12-17T04:01:34.288Z,21.76
2016-12-17T04:02:00.268Z,21.74
2016-12-17T04:02:26.253Z,21.77
2016-12-17T04:02:52.237Z,21.74
2016-12-17T04:03:18.221Z,21.71
2016-12-17T04:03:44.204Z,21.8
2016-12-17T04:04:10.189Z,21.74
2016-12-17T04:04:36.177Z,21.76
2016-12-17T04:05:02.167Z,21.78
2016-12-17T04:05:28.163Z,21.71
2016-12-17T04:05:54.147Z,21.7
2016-12-17T04:06:20.130Z,21.74
2016-12-17T04:06:46.120Z,21.8
2016-12-17T04:07:12.109Z,21.76
2016-12-17T04:07:38.092Z,21.7
2016-12-17T04:08:04.076Z,21.78
2016-12-17T04:08:30.060Z,21.78
2016-12-17T04:08:56.047Z,21.8
2016-12-17T04:09:22.030Z,21.71
2016-12-17T04:09:48.015Z,21.76
2016-12-17T04:10:14.000Z,21.74
2016-12-17T04:10:39.986Z,21.76
2016-12-17T04:11:05.973Z,21.74
2016-12-17T04:11:31.973Z,21.77
2016-12-17T04:11:57.956Z,21.77
2016-12-17T04:12:23.946Z,21.76
2016-12-17T04:12:49.929Z,21.74
2016-12-17T04:13:15.928Z,21.78
2016-12-17T04:13:41.913Z,21.76
2016-12-17T04:14:07.897Z,21.77
2016-12-17T04:14:33.879Z,21.76
2016-12-17T04:14:59.866Z,21.74
2016-12-17T04:15:25.848Z,21.74
2016-12-17T04:15:51.833Z,21.74
2016-12-17T04:16:17.819Z,21.8
2016-12-17T04:16:43.801Z,21.68
2016-12-17T04:17:09.787Z,21.7
2016-12-17T04:17:35.784Z,21.76
2016-12-17T04:18:01.769Z,21.71
2016-12-17T04:18:27.754Z,21.74
2016-12-17T04:18:53.744Z,21.73
2016-12-17T04:19:19.725Z,21.77
2016-12-17T04:19:45.710Z,21.78
2016-12-17T04:20:11.695Z,21.8
2016-12-17T04:20:37.867Z,21.67
2016-12-17T04:21:03.854Z,21.78
2016-12-17T04:21:29.842Z,21.74
2016-12-17T04:21:55.818Z,21.8
2016-12-17T04:22:21.817Z,21.64
2016-12-17T04:22:47.807Z,21.71
2016-12-17T04:23:13.819Z,21.77
2016-12-17T04:23:39.807Z,21.74
2016-12-17T04:24:05.804Z,21.62
2016-12-17T04:24:31.794Z,21.67
2016-12-17T04:24:57.792Z,21.64
2016-12-17T04:25:23.782Z,21.68
2016-12-17T04:25:49.766Z,21.8
2016-12-17T04:26:15.759Z,21.67
2016-12-17T04:26:41.744Z,21.8
2016-12-17T04:27:07.726Z,21.7
2016-12-17T04:27:33.710Z,21.74
2016-12-17T04:27:59.692Z,21.77
2016-12-17T04:28:25.678Z,21.78
2016-12-17T04:28:51.660Z,21.64
2016-12-17T04:29:17.644Z,21.67
2016-12-17T04:29:43.628Z,21.74
2016-12-17T04:30:09.620Z,21.7
2016-12-17T04:30:35.609Z,21.73
2016-12-17T04:31:01.611Z,21.68
2016-12-17T04:31:27.592Z,21.67
2016-12-17T04:31:53.576Z,21.67
2016-12-17T04:32:19.563Z,21.73
2016-12-17T04:32:45.549Z,21.64
2016-12-17T04:33:11.533Z,21.67
2016-12-17T04:33:37.517Z,21.68
2016-12-17T04:34:03.499Z,21.67
2016-12-17T04:34:29.482Z,21.66
2016-12-17T04:34:55.465Z,21.66
2016-12-17T04:35:21.451Z,21.71
2016-12-17T04:35:47.436Z,21.74
2016-12-17T04:36:13.419Z,21.62
2016-12-17T04:36:39.415Z,21.64
2016-12-17T04:37:05.402Z,21.68
2016-12-17T04:37:31.387Z,21.77
2016-12-17T04:37:57.371Z,21.76
2016-12-17T04:38:23.353Z,21.66
2016-12-17T04:38:49.349Z,21.68
2016-12-17T04:39:15.328Z,21.64
2016-12-17T04:39:41.311Z,21.67
2016-12-17T04:40:07.296Z,21.64
2016-12-17T04:40:33.279Z,21.68
2016-12-17T04:40:59.264Z,21.73
2016-12-17T04:41:25.248Z,21.67
2016-12-17T04:41:51.237Z,21.68
2016-12-17T04:42:17.225Z,21.7
2016-12-17T04:42:43.228Z,21.7
2016-12-17T04:43:09.223Z,21.67
2016-12-17T04:43:35.201Z,21.67
2016-12-17T04:44:01.185Z,21.73
2016-12-17T04:44:27.170Z,21.7
2016-12-17T04:44:53.157Z,21.62
2016-12-17T04:45:19.144Z,21.74
2016-12-17T04:45:45.124Z,21.76
2016-12-17T04:46:11.109Z,21.66
2016-12-17T04:46:37.092Z,21.68
2016-12-17T04:47:03.077Z,21.66
2016-12-17T04:47:29.059Z,21.67
2016-12-17T04:47:55.046Z,21.71
2016-12-17T04:48:21.034Z,21.68
2016-12-17T04:48:47.019Z,21.68
2016-12-17T04:49:13.007Z,21.66
2016-12-17T04:49:38.991Z,21.71
2016-12-17T04:50:04.972Z,21.62
2016-12-17T04:50:30.953Z,21.66
2016-12-17T04:50:56.936Z,21.67
2016-12-17T04:51:22.943Z,21.68
2016-12-17T04:51:48.930Z,21.67
2016-12-17T04:52:14.914Z,21.66
2016-12-17T04:52:40.899Z,21.71
2016-12-17T04:53:06.884Z,21.68
2016-12-17T04:53:32.867Z,21.58
2016-12-17T04:53:58.858Z,21.61
2016-12-17T04:54:24.845Z,21.73
2016-12-17T04:54:50.829Z,21.66
2016-12-17T04:55:16.810Z,21.67
2016-12-17T04:55:42.794Z,21.73
2016-12-17T04:56:08.777Z,21.71
2016-12-17T04:56:34.763Z,21.68
2016-12-17T04:57:00.746Z,21.67
2016-12-17T04:57:26.732Z,21.71
2016-12-17T04:57:52.734Z,21.7
2016-12-17T04:58:18.718Z,21.68
2016-12-17T04:58:44.705Z,21.68
2016-12-17T04:59:10.688Z,21.62
2016-12-17T04:59:36.673Z,21.68
2016-12-17T05:00:02.665Z,21.59
2016-12-17T05:00:28.655Z,21.64
2016-12-17T05:00:54.672Z,21.61
2016-12-17T05:01:20.689Z,21.66
2016-12-17T05:01:46.669Z,21.67
2016-12-17T05:02:12.658Z,21.61
2016-12-17T05:02:38.657Z,21.59
2016-12-17T05:03:04.642Z,21.68
2016-12-17T05:03:30.625Z,21.62
2016-12-17T05:03:56.633Z,21.61
2016-12-17T05:04:22.614Z,21.62
2016-12-17T05:04:48.597Z,21.61
2016-12-17T05:05:14.581Z,21.61
2016-12-17T05:05:40.566Z,21.64
2016-12-17T05:06:06.553Z,21.61
2016-12-17T05:06:32.538Z,21.68
2016-12-17T05:06:58.521Z,21.59
2016-12-17T05:07:24.502Z,21.64
2016-12-17T05:07:50.485Z,21.62
2016-12-17T05:08:16.470Z,21.59
2016-12-17T05:08:42.467Z,21.62
2016-12-17T05:09:08.448Z,21.68
2016-12-17T05:09:34.437Z,21.59
2016-12-17T05:10:00.417Z,21.59
2016-12-17T05:10:26.399Z,21.64
2016-12-17T05:10:52.380Z,21.7
2016-12-17T05:11:18.368Z,21.67
2016-12-17T05:11:44.349Z,21.59
2016-12-17T05:12:10.332Z,21.66
2016-12-17T05:12:36.316Z,21.74
2016-12-17T05:13:02.300Z,21.73
2016-12-17T05:13:28.287Z,21.71
2016-12-17T05:13:54.275Z,21.7
2016-12-17T05:14:20.257Z,21.68
2016-12-17T05:14:46.241Z,21.68
2016-12-17T05:15:12.227Z,21.58
2016-12-17T05:15:38.211Z,21.61
2016-12-17T05:16:04.207Z,21.68
2016-12-17T05:16:30.189Z,21.58
2016-12-17T05:16:56.173Z,21.64
2016-12-17T05:17:22.157Z,21.7
2016-12-17T05:17:48.140Z,21.58
2016-12-17T05:18:14.130Z,21.66
2016-12-17T05:18:40.110Z,21.64
2016-12-17T05:19:06.097Z,21.62
2016-12-17T05:19:32.088Z,21.59
2016-12-17T05:19:58.099Z,21.68
2016-12-17T05:20:24.101Z,21.64
2016-12-17T05:20:50.086Z,21.58
2016-12-17T05:21:16.070Z,21.62
2016-12-17T05:21:42.057Z,21.73
2016-12-17T05:22:08.041Z,21.58
2016-12-17T05:22:34.034Z,21.62
2016-12-17T05:23:00.014Z,21.66
2016-12-17T05:23:25.999Z,21.68
2016-12-17T05:23:51.994Z,21.59
2016-12-17T05:24:17.978Z,21.58
2016-12-17T05:24:43.959Z,21.53
2016-12-17T05:25:09.942Z,21.62
2016-12-17T05:25:35.927Z,21.7
2016-12-17T05:26:01.912Z,21.58
2016-12-17T05:26:27.898Z,21.67
2016-12-17T05:26:53.880Z,21.64
2016-12-17T05:27:19.864Z,21.7
2016-12-17T05:27:45.849Z,21.59
2016-12-17T05:28:11.830Z,21.56
2016-12-17T05:28:37.815Z,21.61
2016-12-17T05:29:03.802Z,21.62
2016-12-17T05:29:29.781Z,21.61
2016-12-17T05:29:55.767Z,21.66
2016-12-17T05:30:21.751Z,21.58
2016-12-17T05:30:47.738Z,21.58
2016-12-17T05:31:13.722Z,21.53
2016-12-17T05:31:39.707Z,21.64
2016-12-17T05:32:05.703Z,21.64
2016-12-17T05:32:31.681Z,21.61
2016-12-17T05:32:57.665Z,21.59
2016-12-17T05:33:23.651Z,21.56
2016-12-17T05:33:49.634Z,21.61
2016-12-17T05:34:15.617Z,21.59
2016-12-17T05:34:41.625Z,21.59
2016-12-17T05:35:07.603Z,21.66
2016-12-17T05:35:33.588Z,21.59
2016-12-17T05:35:59.572Z,21.59